createdAt,value
2022-11-27T00:01:21.038Z,77.85
2022-11-27T00:04:06.484Z,77.64
2022-11-27T00:06:49.408Z,77.61
2022-11-27T00:09:33.510Z,77.61
2022-11-27T00:12:16.509Z,77.01
2022-11-27T00:14:59.508Z,76.93
2022-11-27T00:17:42.421Z,76.39
2022-11-27T00:20:29.696Z,76.67
2022-11-27T00:23:12.868Z,76.47
2022-11-27T00:25:55.848Z,76.47
2022-11-27T00:28:39.499Z,76.58
2022-11-27T00:31:27.219Z,76.59
2022-11-27T00:34:10.251Z,76.59
2022-11-27T00:36:54.793Z,76.77
2022-11-27T00:39:37.560Z,76.47
2022-11-27T00:42:20.484Z,76.54
2022-11-27T00:45:03.402Z,76.55
2022-11-27T00:47:46.412Z,76.55
2022-11-27T00:50:31.879Z,76.51
2022-11-27T00:53:16.189Z,76.50
2022-11-27T00:55:59.819Z,76.42
2022-11-27T00:58:42.735Z,76.43
2022-11-27T01:01:28.012Z,77.19
2022-11-27T01:04:14.766Z,77.43
2022-11-27T01:06:57.739Z,77.69
2022-11-27T01:09:42.064Z,77.81
2022-11-27T01:12:25.043Z,77.96
2022-11-27T01:15:09.022Z,78.26
2022-11-27T01:17:52.036Z,78.21
2022-11-27T01:20:35.016Z,78.40
2022-11-27T01:23:17.937Z,78.13
2022-11-27T01:26:03.597Z,78.57
2022-11-27T01:28:47.675Z,78.13
2022-11-27T01:31:32.661Z,78.00
2022-11-27T01:34:18.308Z,78.45
2022-11-27T01:37:01.263Z,79.36
2022-11-27T01:39:44.305Z,79.51
2022-11-27T01:42:28.669Z,79.68
2022-11-27T01:45:12.815Z,79.56
2022-11-27T01:47:59.940Z,79.23
2022-11-27T01:50:43.045Z,79.13
2022-11-27T01:53:26.495Z,79.35
2022-11-27T01:56:09.702Z,79.59
2022-11-27T01:58:54.370Z,79.40
2022-11-27T02:01:37.373Z,79.19
2022-11-27T02:04:20.785Z,78.99
2022-11-27T02:07:04.088Z,78.83
2022-11-27T02:09:47.210Z,78.83
2022-11-27T02:12:37.572Z,78.76
2022-11-27T02:15:30.322Z,78.81
2022-11-27T02:18:19.999Z,78.87
2022-11-27T02:21:11.216Z,78.95
2022-11-27T02:24:23.068Z,78.83
2022-11-27T02:27:44.536Z,78.68
2022-11-27T02:30:31.885Z,78.73
2022-11-27T02:33:20.769Z,78.72
2022-11-27T02:36:12.788Z,78.69
2022-11-27T02:39:03.063Z,78.73
2022-11-27T02:41:51.742Z,78.76
2022-11-27T02:44:40.448Z,78.62
2022-11-27T02:47:25.372Z,78.23
2022-11-27T02:50:13.311Z,78.34
2022-11-27T02:53:01.260Z,78.58
2022-11-27T02:55:46.156Z,78.58
2022-11-27T02:58:31.381Z,78.84
2022-11-27T03:01:16.923Z,78.86
2022-11-27T03:04:07.749Z,78.76
2022-11-27T03:06:55.166Z,78.70
2022-11-27T03:09:41.331Z,78.93
2022-11-27T03:12:24.429Z,78.54
2022-11-27T03:15:08.565Z,78.60
2022-11-27T03:17:59.700Z,78.27
2022-11-27T03:20:49.053Z,78.18
2022-11-27T03:23:32.084Z,78.28
2022-11-27T03:26:15.210Z,78.16
2022-11-27T03:29:01.285Z,77.79
2022-11-27T03:31:44.792Z,77.77
2022-11-27T03:34:28.943Z,77.69
2022-11-27T03:37:13.371Z,77.72
2022-11-27T03:39:56.546Z,77.69
2022-11-27T03:42:52.250Z,78.02
2022-11-27T03:45:44.682Z,78.08
2022-11-27T03:48:36.607Z,77.99
2022-11-27T03:51:27.807Z,78.04
2022-11-27T03:54:20.987Z,77.91
2022-11-27T03:57:13.497Z,77.71
2022-11-27T04:00:01.311Z,77.48
2022-11-27T04:02:47.023Z,77.36
2022-11-27T04:05:30.030Z,77.72
2022-11-27T04:08:12.987Z,77.50
2022-11-27T04:10:57.307Z,77.47
2022-11-27T04:13:40.450Z,77.74
2022-11-27T04:16:23.571Z,77.77
2022-11-27T04:19:06.653Z,77.67
2022-11-27T04:21:49.556Z,77.71
2022-11-27T04:24:32.538Z,77.57
2022-11-27T04:27:16.848Z,77.52
2022-11-27T04:30:00.000Z,77.49
2022-11-27T04:32:42.980Z,77.62
2022-11-27T04:35:25.978Z,77.73
2022-11-27T04:38:08.933Z,77.96
2022-11-27T04:40:53.473Z,77.85
2022-11-27T04:43:37.588Z,78.25
2022-11-27T04:46:20.565Z,78.85
2022-11-27T04:49:03.511Z,79.04
2022-11-27T04:51:46.491Z,79.43
2022-11-27T04:54:29.425Z,79.37
2022-11-27T04:57:12.486Z,78.85
2022-11-27T04:59:56.808Z,78.27
2022-11-27T05:02:40.221Z,79.46
2022-11-27T05:05:23.192Z,79.93
2022-11-27T05:08:06.360Z,79.95
2022-11-27T05:10:59.952Z,80.30
2022-11-27T05:13:43.268Z,80.21
2022-11-27T05:16:27.608Z,80.00
2022-11-27T05:19:11.291Z,79.90
2022-11-27T05:21:54.945Z,79.79
2022-11-27T05:24:38.270Z,79.99
2022-11-27T05:27:21.377Z,80.10
2022-11-27T05:30:05.014Z,80.53
2022-11-27T05:32:49.348Z,80.66
2022-11-27T05:35:32.277Z,80.60
2022-11-27T05:38:15.294Z,80.68
2022-11-27T05:40:58.327Z,80.37
2022-11-27T05:43:41.956Z,80.43
2022-11-27T05:46:24.958Z,80.55
2022-11-27T05:49:09.843Z,80.29
2022-11-27T05:51:52.845Z,80.11
2022-11-27T05:54:35.879Z,80.42
2022-11-27T05:57:18.819Z,79.90
2022-11-27T06:00:01.877Z,79.71
2022-11-27T06:02:47.715Z,79.23
2022-11-27T06:05:32.074Z,79.67
2022-11-27T06:08:15.067Z,80.17
2022-11-27T06:10:58.022Z,79.82
2022-11-27T06:13:41.312Z,79.64
2022-11-27T06:16:25.393Z,79.76
2022-11-27T06:19:08.920Z,79.55
2022-11-27T06:21:54.282Z,79.55
2022-11-27T06:24:37.252Z,79.54
2022-11-27T06:27:20.222Z,79.49
2022-11-27T06:30:04.706Z,79.52
2022-11-27T06:32:47.512Z,79.80
2022-11-27T06:35:30.486Z,79.89
2022-11-27T06:38:14.765Z,79.57
2022-11-27T06:41:03.361Z,79.31
2022-11-27T06:43:46.493Z,79.57
2022-11-27T06:46:30.582Z,79.64
2022-11-27T06:49:13.506Z,79.39
2022-11-27T06:51:56.462Z,79.28
2022-11-27T06:54:41.107Z,79.01
2022-11-27T06:57:24.244Z,79.28
2022-11-27T07:00:08.468Z,79.13
2022-11-27T07:02:55.104Z,78.92
2022-11-27T07:05:38.671Z,78.86
2022-11-27T07:08:22.299Z,79.08
2022-11-27T07:11:08.338Z,78.87
2022-11-27T07:13:52.445Z,78.69
2022-11-27T07:16:37.082Z,78.60
2022-11-27T07:19:20.563Z,78.65
2022-11-27T07:22:03.546Z,78.54
2022-11-27T07:24:46.579Z,78.52
2022-11-27T07:27:30.902Z,78.47
2022-11-27T07:30:14.682Z,78.29
2022-11-27T07:32:57.576Z,78.46
2022-11-27T07:35:40.567Z,78.55
2022-11-27T07:38:23.499Z,78.58
2022-11-27T07:41:07.629Z,78.66
2022-11-27T07:43:51.983Z,78.79
2022-11-27T07:46:34.943Z,78.58
2022-11-27T07:49:17.890Z,78.75
2022-11-27T07:52:00.868Z,78.82
2022-11-27T07:54:43.833Z,78.95
2022-11-27T07:57:28.485Z,78.77
2022-11-27T08:00:13.879Z,78.94
2022-11-27T08:02:56.822Z,79.04
2022-11-27T08:05:39.797Z,78.78
2022-11-27T08:08:22.685Z,79.03
2022-11-27T08:11:05.733Z,78.99
2022-11-27T08:13:49.013Z,78.87
2022-11-27T08:16:34.605Z,78.98
2022-11-27T08:19:17.566Z,79.09
2022-11-27T08:22:00.590Z,79.06
2022-11-27T08:24:43.971Z,78.99
2022-11-27T08:27:26.973Z,78.93
2022-11-27T08:30:10.916Z,78.96
2022-11-27T08:32:55.270Z,78.99
2022-11-27T08:35:38.192Z,78.79
2022-11-27T08:38:21.971Z,78.83
2022-11-27T08:41:06.801Z,78.67
2022-11-27T08:43:49.873Z,78.48
2022-11-27T08:46:32.817Z,78.21
2022-11-27T08:49:17.398Z,78.04
2022-11-27T08:52:00.623Z,78.14
2022-11-27T08:54:43.593Z,77.94
2022-11-27T08:57:26.985Z,77.82
2022-11-27T09:00:11.833Z,77.65
2022-11-27T09:02:54.794Z,77.55
2022-11-27T09:05:43.563Z,77.12
2022-11-27T09:08:26.879Z,77.18
2022-11-27T09:11:11.577Z,77.00
2022-11-27T09:13:54.370Z,75.92
2022-11-27T09:16:37.539Z,76.23
2022-11-27T09:19:21.668Z,76.19
2022-11-27T09:22:05.983Z,76.05
2022-11-27T09:24:48.992Z,75.95
2022-11-27T09:27:31.897Z,75.59
2022-11-27T09:30:15.438Z,75.20
2022-11-27T09:32:58.396Z,74.82
2022-11-27T09:35:41.492Z,74.92
2022-11-27T09:38:25.906Z,74.72
2022-11-27T09:41:22.188Z,74.03
2022-11-27T09:44:13.195Z,74.13
2022-11-27T09:46:59.630Z,74.17
2022-11-27T09:49:47.315Z,73.97
2022-11-27T09:52:38.357Z,73.88
2022-11-27T09:55:27.717Z,73.50
2022-11-27T09:58:17.756Z,73.45
2022-11-27T10:01:00.780Z,73.07
2022-11-27T10:03:44.611Z,72.77
2022-11-27T10:06:33.989Z,72.38
2022-11-27T10:09:25.219Z,72.40
2022-11-27T10:12:19.926Z,72.52
2022-11-27T10:15:10.899Z,72.47
2022-11-27T10:18:02.670Z,72.55
2022-11-27T10:20:51.831Z,71.85
2022-11-27T10:23:44.163Z,72.24
2022-11-27T10:26:32.838Z,72.17
2022-11-27T10:29:29.846Z,71.73
2022-11-27T10:32:46.726Z,72.07
2022-11-27T10:35:21.366Z,71.43
2022-11-27T10:38:12.301Z,71.30
2022-11-27T10:41:06.415Z,71.24
2022-11-27T10:43:56.496Z,71.21
2022-11-27T10:46:41.514Z,70.98
2022-11-27T10:49:24.421Z,70.76
2022-11-27T10:52:12.136Z,70.75
2022-11-27T10:54:59.784Z,70.26
2022-11-27T10:58:01.276Z,69.89
2022-11-27T11:00:44.249Z,70.05
2022-11-27T11:03:28.620Z,69.77
2022-11-27T11:06:22.210Z,69.73
2022-11-27T11:09:13.318Z,69.98
2022-11-27T11:12:07.288Z,69.65
2022-11-27T11:14:54.928Z,69.35
2022-11-27T11:17:38.490Z,69.46
2022-11-27T11:20:24.490Z,69.50
2022-11-27T11:23:07.635Z,69.17
2022-11-27T11:25:53.442Z,68.46
2022-11-27T11:28:45.766Z,66.51
2022-11-27T11:31:34.595Z,67.74
2022-11-27T11:34:23.036Z,68.03
2022-11-27T11:37:17.120Z,67.94
2022-11-27T11:40:02.047Z,66.78
2022-11-27T11:42:53.764Z,67.35
2022-11-27T11:45:47.737Z,67.08
2022-11-27T11:48:30.902Z,66.71
2022-11-27T11:51:18.825Z,67.11
2022-11-27T11:54:14.313Z,67.00
2022-11-27T11:57:01.260Z,66.79
2022-11-27T11:59:56.838Z,66.97
2022-11-27T12:02:56.808Z,66.33
2022-11-27T12:05:50.686Z,66.03
2022-11-27T12:08:49.736Z,65.90
2022-11-27T12:11:45.429Z,65.38
2022-11-27T12:14:42.638Z,65.31
2022-11-27T12:17:41.287Z,65.82
2022-11-27T12:20:31.797Z,64.70
2022-11-27T12:23:40.403Z,65.23
2022-11-27T12:26:33.458Z,65.22
2022-11-27T12:29:40.210Z,64.98
2022-11-27T12:32:38.749Z,64.95
2022-11-27T12:35:32.814Z,63.69
2022-11-27T12:38:52.585Z,62.98
2022-11-27T12:41:45.724Z,64.52
2022-11-27T12:44:47.454Z,64.46
2022-11-27T12:47:40.154Z,64.63
2022-11-27T12:50:35.899Z,64.54
2022-11-27T12:53:25.056Z,64.42
2022-11-27T12:56:16.033Z,64.47
2022-11-27T12:59:05.784Z,64.17
2022-11-27T13:01:58.359Z,64.02
2022-11-27T13:04:47.712Z,64.00
2022-11-27T13:07:40.340Z,63.90
2022-11-27T13:10:29.504Z,63.80
2022-11-27T13:13:17.539Z,63.79
2022-11-27T13:16:05.454Z,63.58
2022-11-27T13:18:53.360Z,63.23
2022-11-27T13:21:39.779Z,63.33
2022-11-27T13:24:24.014Z,63.31
2022-11-27T13:27:11.634Z,63.40
2022-11-27T13:29:58.507Z,63.08
2022-11-27T13:32:48.897Z,63.06
2022-11-27T13:35:39.228Z,62.81
2022-11-27T13:38:25.229Z,63.28
2022-11-27T13:41:08.317Z,62.93
2022-11-27T13:43:52.545Z,63.23
2022-11-27T13:46:48.455Z,62.96
2022-11-27T13:49:35.281Z,62.46
2022-11-27T13:52:22.540Z,62.70
2022-11-27T13:55:09.753Z,62.59
2022-11-27T13:57:53.696Z,62.74
2022-11-27T14:00:39.151Z,62.95
2022-11-27T14:03:24.946Z,62.95
2022-11-27T14:06:19.000Z,62.81
2022-11-27T14:09:05.800Z,62.98
2022-11-27T14:11:49.704Z,63.24
2022-11-27T14:14:32.796Z,63.21
2022-11-27T14:17:27.813Z,63.04
2022-11-27T14:20:25.711Z,62.53
2022-11-27T14:23:12.753Z,63.32
2022-11-27T14:26:06.913Z,63.60
2022-11-27T14:28:55.173Z,63.62
2022-11-27T14:31:38.240Z,63.78
2022-11-27T14:34:27.225Z,63.57
2022-11-27T14:37:23.582Z,63.17
2022-11-27T14:40:14.765Z,63.37
2022-11-27T14:43:15.501Z,63.59
2022-11-27T14:46:01.857Z,64.01
2022-11-27T14:48:46.537Z,63.68
2022-11-27T14:51:30.942Z,64.18
2022-11-27T14:54:19.931Z,64.19
2022-11-27T14:57:03.638Z,64.30
2022-11-27T14:59:47.990Z,64.43
2022-11-27T15:02:32.276Z,64.82
2022-11-27T15:05:21.214Z,64.85
2022-11-27T15:08:04.386Z,65.06
2022-11-27T15:10:47.560Z,64.99
2022-11-27T15:13:32.384Z,64.96
2022-11-27T15:16:19.725Z,65.06
2022-11-27T15:19:06.234Z,65.07
2022-11-27T15:21:50.866Z,65.69
2022-11-27T15:24:34.747Z,65.75
2022-11-27T15:27:20.395Z,65.94
2022-11-27T15:30:12.923Z,66.45
2022-11-27T15:32:57.471Z,66.80
2022-11-27T15:35:40.450Z,67.19
2022-11-27T15:38:23.532Z,67.45
2022-11-27T15:41:06.746Z,67.70
2022-11-27T15:43:49.756Z,67.91
2022-11-27T15:46:36.164Z,68.26
2022-11-27T15:49:20.809Z,68.39
2022-11-27T15:52:03.779Z,68.63
2022-11-27T15:54:46.830Z,68.98
2022-11-27T15:57:29.835Z,69.06
2022-11-27T16:00:13.683Z,69.19
2022-11-27T16:02:56.675Z,69.33
2022-11-27T16:05:41.099Z,69.46
2022-11-27T16:08:24.060Z,69.76
2022-11-27T16:11:09.085Z,69.97
2022-11-27T16:13:52.053Z,69.82
2022-11-27T16:16:35.326Z,70.05
2022-11-27T16:19:18.391Z,70.01
2022-11-27T16:22:02.845Z,70.15
2022-11-27T16:24:46.029Z,70.23
2022-11-27T16:27:28.968Z,70.41
2022-11-27T16:30:12.888Z,70.33
2022-11-27T16:32:55.871Z,70.46
2022-11-27T16:35:39.445Z,70.64
2022-11-27T16:38:24.294Z,70.42
2022-11-27T16:41:11.449Z,70.50
2022-11-27T16:43:57.455Z,70.70
2022-11-27T16:46:43.857Z,70.50
2022-11-27T16:49:27.351Z,70.58
2022-11-27T16:52:11.622Z,70.75
2022-11-27T16:54:56.821Z,70.69
2022-11-27T16:57:39.971Z,70.91
2022-11-27T17:00:23.229Z,70.79
2022-11-27T17:03:06.230Z,70.67
2022-11-27T17:05:51.580Z,70.69
2022-11-27T17:08:34.763Z,70.99
2022-11-27T17:11:21.475Z,70.73
2022-11-27T17:14:06.535Z,70.24
2022-11-27T17:16:50.464Z,70.43
2022-11-27T17:19:34.309Z,70.67
2022-11-27T17:22:17.525Z,71.12
2022-11-27T17:25:00.755Z,71.20
2022-11-27T17:27:45.185Z,71.32
2022-11-27T17:30:28.176Z,71.97
2022-11-27T17:33:11.154Z,71.62
2022-11-27T17:35:54.200Z,71.76
2022-11-27T17:38:37.216Z,71.64
2022-11-27T17:41:21.267Z,71.72
2022-11-27T17:44:06.545Z,71.90
2022-11-27T17:46:50.705Z,71.78
2022-11-27T17:49:34.899Z,72.11
2022-11-27T17:52:17.923Z,72.03
2022-11-27T17:55:00.926Z,72.15
2022-11-27T17:57:43.862Z,72.02
2022-11-27T18:00:29.117Z,72.12
2022-11-27T18:03:12.364Z,72.10
2022-11-27T18:05:55.336Z,72.03
2022-11-27T18:08:38.494Z,71.80
2022-11-27T18:11:23.877Z,71.87
2022-11-27T18:14:06.945Z,72.11
2022-11-27T18:16:51.392Z,72.18
2022-11-27T18:19:34.280Z,72.90
2022-11-27T18:22:17.739Z,72.89
2022-11-27T18:25:00.771Z,72.91
2022-11-27T18:27:43.754Z,72.77
2022-11-27T18:30:27.034Z,72.82
2022-11-27T18:33:11.334Z,72.59
2022-11-27T18:35:54.565Z,72.46
2022-11-27T18:38:39.042Z,72.32
2022-11-27T18:41:24.874Z,72.55
2022-11-27T18:44:08.198Z,72.73
2022-11-27T18:46:51.219Z,72.75
2022-11-27T18:49:35.791Z,72.53
2022-11-27T18:52:18.811Z,73.06
2022-11-27T18:55:02.989Z,73.13
2022-11-27T18:57:46.474Z,72.89
2022-11-27T19:00:29.663Z,73.07
2022-11-27T19:03:13.792Z,72.98
2022-11-27T19:05:58.339Z,73.11
2022-11-27T19:08:41.917Z,73.11
2022-11-27T19:11:25.868Z,72.88
2022-11-27T19:14:09.477Z,73.26
2022-11-27T19:16:53.955Z,73.29
2022-11-27T19:22:43.404Z,73.51
2022-11-27T19:25:26.488Z,73.30
2022-11-27T19:28:11.868Z,73.04
2022-11-27T19:30:54.976Z,72.88
2022-11-27T19:33:38.443Z,72.90
2022-11-27T19:36:23.316Z,72.88
2022-11-27T19:39:09.700Z,72.77
2022-11-27T19:41:53.855Z,72.96
2022-11-27T19:44:37.023Z,72.92
2022-11-27T19:47:20.148Z,72.61
2022-11-27T19:50:03.139Z,72.74
2022-11-27T19:52:47.107Z,72.76
2022-11-27T19:55:31.833Z,72.49
2022-11-27T19:58:14.727Z,72.89
2022-11-27T20:01:06.560Z,72.40
2022-11-27T20:03:50.933Z,72.12
2022-11-27T20:06:33.981Z,72.31
2022-11-27T20:09:17.225Z,72.47
2022-11-27T20:12:02.378Z,72.12
2022-11-27T20:14:45.545Z,72.39
2022-11-27T20:17:28.730Z,72.14
2022-11-27T20:20:13.547Z,72.11
2022-11-27T20:22:56.897Z,72.16
2022-11-27T20:25:40.751Z,72.28
2022-11-27T20:28:25.711Z,72.07
2022-11-27T20:31:11.045Z,72.17
2022-11-27T20:33:54.561Z,72.35
2022-11-27T20:36:41.117Z,72.01
2022-11-27T20:39:26.817Z,71.87
2022-11-27T20:42:09.872Z,71.77
2022-11-27T20:44:55.145Z,71.79
2022-11-27T20:47:38.867Z,71.67
2022-11-27T20:50:21.879Z,71.80
2022-11-27T20:53:07.432Z,71.75
2022-11-27T20:55:50.481Z,71.53
2022-11-27T20:58:36.238Z,71.84
2022-11-27T21:01:24.672Z,71.52
2022-11-27T21:04:19.594Z,71.50
2022-11-27T21:07:02.722Z,71.54
2022-11-27T21:09:45.908Z,71.48
2022-11-27T21:12:29.402Z,71.69
2022-11-27T21:15:14.279Z,71.45
2022-11-27T21:17:58.759Z,71.42
2022-11-27T21:20:41.727Z,71.19
2022-11-27T21:23:24.772Z,70.88
2022-11-27T21:26:09.473Z,70.98
2022-11-27T21:28:52.734Z,70.94
2022-11-27T21:31:37.684Z,70.98
2022-11-27T21:34:22.971Z,70.82
2022-11-27T21:37:05.839Z,70.38
2022-11-27T21:39:51.094Z,70.55
2022-11-27T21:42:34.158Z,70.54
2022-11-27T21:45:17.400Z,70.58
2022-11-27T21:48:00.629Z,70.40
2022-11-27T21:50:45.123Z,70.61
2022-11-27T21:53:30.673Z,70.44
2022-11-27T21:56:16.147Z,70.23
2022-11-27T21:58:59.114Z,69.96
2022-11-27T22:01:42.498Z,69.86
2022-11-27T22:04:25.989Z,69.83
2022-11-27T22:07:10.293Z,69.80
2022-11-27T22:09:53.555Z,69.81
2022-11-27T22:12:36.577Z,69.87
2022-11-27T22:15:19.706Z,69.81
2022-11-27T22:18:02.770Z,69.93
2022-11-27T22:20:45.944Z,69.88
2022-11-27T22:23:31.122Z,69.77
2022-11-27T22:26:15.128Z,69.64
2022-11-27T22:28:58.918Z,69.62
2022-11-27T22:31:42.022Z,69.82
2022-11-27T22:34:25.001Z,69.59
2022-11-27T22:37:08.820Z,69.32
2022-11-27T22:39:53.266Z,69.13
2022-11-27T22:42:36.558Z,68.44
2022-11-27T22:45:19.546Z,68.68
2022-11-27T22:48:02.727Z,68.79
2022-11-27T22:50:46.390Z,68.82
2022-11-27T22:53:29.843Z,68.84
2022-11-27T22:56:15.447Z,68.68
2022-11-27T22:59:24.491Z,68.66
2022-11-27T23:02:03.737Z,67.89
2022-11-27T23:04:46.969Z,68.24
2022-11-27T23:07:30.093Z,68.44
2022-11-27T23:10:13.728Z,68.42
2022-11-27T23:12:58.070Z,68.22
2022-11-27T23:15:41.147Z,67.96
2022-11-27T23:18:24.098Z,68.21
2022-11-27T23:21:07.814Z,68.09
2022-11-27T23:23:51.600Z,68.35
2022-11-27T23:26:35.021Z,67.93
2022-11-27T23:29:19.388Z,67.98
2022-11-27T23:32:02.329Z,67.84
2022-11-27T23:34:45.318Z,67.84
2022-11-27T23:37:29.300Z,68.01
2022-11-27T23:40:12.933Z,67.58
2022-11-27T23:42:55.859Z,67.31
2022-11-27T23:45:40.505Z,67.23
2022-11-27T23:48:23.465Z,67.24
2022-11-27T23:51:10.270Z,67.11
2022-11-27T23:53:54.015Z,66.83
2022-11-27T23:56:37.549Z,66.85
2022-11-27T23:59:20.578Z,66.63
